メインページ
METAR-TAF:

METAR-TAF

空港 :

ズヴァルトノッツ国際空港

エレバン, アルメニア

緯度: 40-08-50N, 経度: 044-23-45E, 海抜: 865m

現時点の気象観測

当レポートは42分前の06:30(UTC)に作成
東/南東の風 3kt、北/北東からの間で変化する
気温 12°C
湿度 47%
気圧 1006 hPa
視程10km以上
高度4600ftの雲は散在している

METAR: UDYZ 240630Z 12003KT 030V170 9999 SCT046 12/01 Q1006 R09/010070 NOSIG

時間: 11:12 (07:12 UTC)

予報

当レポートは2時間9分前の05:03(UTC)に作成
予報は24日の 06時(UTC)から 25日の 06時(UTC)まで有効
西/南西の風 6kt
視程10km以上
高度3000ftの千切れ雲あり
24日の 08時(UTC)から 24日の 20時(UTC)まで一時的に
高度2000ftの曇り
小雨

TAF: UDYZ 240503Z 2406/2506 24006KT 9999 BKN030 TEMPO 2408/2420 -RA OVC020

4,000以上の空港の気象観測と天気予報(METAR報とTAF報)

利用可能な観測所は地図上に黄色い丸と赤い丸で示す。

丸の上にカーソルを重ねると観測所名を参照できる。

次にクリックすると気象観測と天気予報を参照できる。

マップの切り替え:黒色「×」印の緑ボタンをクリックして拡大、「-」印の緑ボタンをクリックして縮小、緑色の三角印をクリックして隣りの地図に切り替え


METAR-TAF: